sensor_id;sensor_type;location;lat;lon;timestamp;P1;durP1;ratioP1;P2;durP2;ratioP2
52386;SDS011;38317;53.084;6.960;2022-12-10T00:00:54;21.67;;;10.20;;
52386;SDS011;38317;53.084;6.960;2022-12-10T00:03:27;19.95;;;9.45;;
52386;SDS011;38317;53.084;6.960;2022-12-10T00:05:53;19.83;;;9.73;;
52386;SDS011;38317;53.084;6.960;2022-12-10T00:08:18;22.08;;;10.75;;
52386;SDS011;38317;53.084;6.960;2022-12-10T00:10:44;24.52;;;11.43;;
52386;SDS011;38317;53.084;6.960;2022-12-10T00:13:10;24.08;;;11.45;;
52386;SDS011;38317;53.084;6.960;2022-12-10T00:15:35;25.75;;;10.93;;
52386;SDS011;38317;53.084;6.960;2022-12-10T00:18:01;23.85;;;10.55;;
52386;SDS011;38317;53.084;6.960;2022-12-10T00:20:27;19.92;;;9.80;;
52386;SDS011;38317;53.084;6.960;2022-12-10T00:22:53;20.92;;;9.95;;
52386;SDS011;38317;53.084;6.960;2022-12-10T00:25:18;21.83;;;10.70;;
52386;SDS011;38317;53.084;6.960;2022-12-10T00:27:44;22.48;;;9.30;;
52386;SDS011;38317;53.084;6.960;2022-12-10T00:30:10;19.60;;;9.40;;
52386;SDS011;38317;53.084;6.960;2022-12-10T00:32:36;24.58;;;10.27;;
52386;SDS011;38317;53.084;6.960;2022-12-10T00:35:02;20.75;;;10.23;;
52386;SDS011;38317;53.084;6.960;2022-12-10T00:37:27;24.38;;;10.75;;
52386;SDS011;38317;53.084;6.960;2022-12-10T00:39:53;23.05;;;9.68;;
52386;SDS011;38317;53.084;6.960;2022-12-10T00:42:22;20.13;;;10.00;;
52386;SDS011;38317;53.084;6.960;2022-12-10T00:44:47;24.42;;;10.50;;
52386;SDS011;38317;53.084;6.960;2022-12-10T00:47:13;23.55;;;9.38;;
52386;SDS011;38317;53.084;6.960;2022-12-10T00:49:39;21.25;;;10.40;;
52386;SDS011;38317;53.084;6.960;2022-12-10T00:52:04;20.90;;;9.95;;
52386;SDS011;38317;53.084;6.960;2022-12-10T00:54:30;25.15;;;10.50;;
52386;SDS011;38317;53.084;6.960;2022-12-10T00:56:56;22.05;;;10.35;;
52386;SDS011;38317;53.084;6.960;2022-12-10T00:59:21;21.88;;;9.77;;
52386;SDS011;38317;53.084;6.960;2022-12-10T01:01:47;23.77;;;10.38;;
52386;SDS011;38317;53.084;6.960;2022-12-10T01:04:14;21.65;;;9.70;;
52386;SDS011;38317;53.084;6.960;2022-12-10T01:09:16;23.05;;;10.75;;
52386;SDS011;38317;53.084;6.960;2022-12-10T01:11:44;21.70;;;10.25;;
52386;SDS011;38317;53.084;6.960;2022-12-10T01:14:12;19.38;;;9.52;;
52386;SDS011;38317;53.084;6.960;2022-12-10T01:16:44;21.08;;;9.95;;
52386;SDS011;38317;53.084;6.960;2022-12-10T01:19:09;23.02;;;10.90;;
52386;SDS011;38317;53.084;6.960;2022-12-10T01:21:35;24.13;;;11.07;;
52386;SDS011;38317;53.084;6.960;2022-12-10T01:24:02;20.77;;;9.95;;
52386;SDS011;38317;53.084;6.960;2022-12-10T01:26:32;24.20;;;10.18;;
52386;SDS011;38317;53.084;6.960;2022-12-10T01:28:59;22.65;;;9.45;;
52386;SDS011;38317;53.084;6.960;2022-12-10T01:31:27;25.20;;;10.80;;
52386;SDS011;38317;53.084;6.960;2022-12-10T01:33:54;26.50;;;11.55;;
52386;SDS011;38317;53.084;6.960;2022-12-10T01:36:26;28.00;;;12.30;;
52386;SDS011;38317;53.084;6.960;2022-12-10T01:38:54;24.33;;;10.33;;
52386;SDS011;38317;53.084;6.960;2022-12-10T01:41:21;26.75;;;11.85;;
52386;SDS011;38317;53.084;6.960;2022-12-10T01:43:53;29.08;;;13.23;;
52386;SDS011;38317;53.084;6.960;2022-12-10T01:46:22;28.45;;;12.27;;
52386;SDS011;38317;53.084;6.960;2022-12-10T01:48:49;27.25;;;12.52;;
52386;SDS011;38317;53.084;6.960;2022-12-10T01:51:16;25.58;;;11.40;;
52386;SDS011;38317;53.084;6.960;2022-12-10T01:53:42;25.48;;;10.63;;
52386;SDS011;38317;53.084;6.960;2022-12-10T01:56:10;26.30;;;11.60;;
52386;SDS011;38317;53.084;6.960;2022-12-10T01:58:36;27.35;;;12.43;;
52386;SDS011;38317;53.084;6.960;2022-12-10T02:03:57;25.63;;;11.57;;
52386;SDS011;38317;53.084;6.960;2022-12-10T02:12:17;27.02;;;10.98;;
52386;SDS011;38317;53.084;6.960;2022-12-10T02:15:13;27.65;;;12.27;;
52386;SDS011;38317;53.084;6.960;2022-12-10T02:20:45;24.55;;;10.60;;
52386;SDS011;38317;53.084;6.960;2022-12-10T02:25:49;27.15;;;11.98;;
52386;SDS011;38317;53.084;6.960;2022-12-10T02:28:39;22.98;;;10.52;;
52386;SDS011;38317;53.084;6.960;2022-12-10T02:31:24;24.98;;;11.15;;
52386;SDS011;38317;53.084;6.960;2022-12-10T02:33:55;29.38;;;11.88;;
52386;SDS011;38317;53.084;6.960;2022-12-10T02:36:24;30.27;;;12.55;;
52386;SDS011;38317;53.084;6.960;2022-12-10T02:38:53;25.67;;;11.68;;
52386;SDS011;38317;53.084;6.960;2022-12-10T02:41:45;26.75;;;11.80;;
52386;SDS011;38317;53.084;6.960;2022-12-10T02:44:11;35.30;;;12.27;;
52386;SDS011;38317;53.084;6.960;2022-12-10T02:46:39;33.55;;;13.40;;
52386;SDS011;38317;53.084;6.960;2022-12-10T02:49:08;27.13;;;12.30;;
52386;SDS011;38317;53.084;6.960;2022-12-10T02:51:36;27.60;;;11.85;;
52386;SDS011;38317;53.084;6.960;2022-12-10T02:54:03;28.00;;;12.60;;
52386;SDS011;38317;53.084;6.960;2022-12-10T02:59:27;25.10;;;11.45;;
52386;SDS011;38317;53.084;6.960;2022-12-10T03:02:20;23.67;;;9.88;;
52386;SDS011;38317;53.084;6.960;2022-12-10T03:05:01;25.50;;;11.73;;
52386;SDS011;38317;53.084;6.960;2022-12-10T03:07:35;29.77;;;12.43;;
52386;SDS011;38317;53.084;6.960;2022-12-10T03:10:06;28.02;;;10.63;;
52386;SDS011;38317;53.084;6.960;2022-12-10T03:12:46;37.72;;;14.30;;
52386;SDS011;38317;53.084;6.960;2022-12-10T03:15:15;32.30;;;13.05;;
52386;SDS011;38317;53.084;6.960;2022-12-10T03:17:43;34.22;;;12.85;;
52386;SDS011;38317;53.084;6.960;2022-12-10T03:20:12;26.15;;;10.30;;
52386;SDS011;38317;53.084;6.960;2022-12-10T03:22:40;30.60;;;13.25;;
52386;SDS011;38317;53.084;6.960;2022-12-10T03:25:09;28.80;;;11.43;;
52386;SDS011;38317;53.084;6.960;2022-12-10T03:27:38;29.58;;;12.52;;
52386;SDS011;38317;53.084;6.960;2022-12-10T03:30:06;29.05;;;11.15;;
52386;SDS011;38317;53.084;6.960;2022-12-10T03:32:34;27.00;;;12.10;;
52386;SDS011;38317;53.084;6.960;2022-12-10T03:35:02;30.98;;;12.02;;
52386;SDS011;38317;53.084;6.960;2022-12-10T03:37:28;27.52;;;12.73;;
52386;SDS011;38317;53.084;6.960;2022-12-10T03:39:55;29.05;;;11.30;;
52386;SDS011;38317;53.084;6.960;2022-12-10T03:42:22;28.85;;;11.18;;
52386;SDS011;38317;53.084;6.960;2022-12-10T03:44:49;26.25;;;10.55;;
52386;SDS011;38317;53.084;6.960;2022-12-10T03:47:16;28.85;;;12.02;;
52386;SDS011;38317;53.084;6.960;2022-12-10T03:49:42;32.22;;;13.30;;
52386;SDS011;38317;53.084;6.960;2022-12-10T03:52:08;31.42;;;13.70;;
52386;SDS011;38317;53.084;6.960;2022-12-10T03:54:34;28.98;;;12.85;;
52386;SDS011;38317;53.084;6.960;2022-12-10T03:57:00;27.65;;;12.77;;
52386;SDS011;38317;53.084;6.960;2022-12-10T03:59:26;29.80;;;13.27;;
52386;SDS011;38317;53.084;6.960;2022-12-10T04:01:52;37.92;;;14.95;;
52386;SDS011;38317;53.084;6.960;2022-12-10T04:04:18;37.20;;;15.07;;
52386;SDS011;38317;53.084;6.960;2022-12-10T04:06:43;30.42;;;12.77;;
52386;SDS011;38317;53.084;6.960;2022-12-10T04:09:10;32.13;;;13.45;;
52386;SDS011;38317;53.084;6.960;2022-12-10T04:11:37;29.58;;;13.45;;
52386;SDS011;38317;53.084;6.960;2022-12-10T04:14:03;30.40;;;12.77;;
52386;SDS011;38317;53.084;6.960;2022-12-10T04:16:48;30.02;;;12.82;;
52386;SDS011;38317;53.084;6.960;2022-12-10T04:19:15;36.13;;;14.02;;
52386;SDS011;38317;53.084;6.960;2022-12-10T04:21:43;30.80;;;13.23;;
52386;SDS011;38317;53.084;6.960;2022-12-10T04:24:29;28.48;;;13.07;;
52386;SDS011;38317;53.084;6.960;2022-12-10T04:29:46;32.45;;;14.13;;
52386;SDS011;38317;53.084;6.960;2022-12-10T04:32:12;31.92;;;13.93;;
52386;SDS011;38317;53.084;6.960;2022-12-10T04:34:38;31.08;;;14.68;;
52386;SDS011;38317;53.084;6.960;2022-12-10T04:37:03;33.47;;;13.80;;
52386;SDS011;38317;53.084;6.960;2022-12-10T04:39:30;34.67;;;16.25;;
52386;SDS011;38317;53.084;6.960;2022-12-10T04:41:56;34.67;;;13.43;;
52386;SDS011;38317;53.084;6.960;2022-12-10T04:44:22;28.92;;;13.48;;
52386;SDS011;38317;53.084;6.960;2022-12-10T04:46:48;30.17;;;13.52;;
52386;SDS011;38317;53.084;6.960;2022-12-10T04:49:14;29.13;;;13.63;;
52386;SDS011;38317;53.084;6.960;2022-12-10T04:51:40;30.52;;;13.27;;
52386;SDS011;38317;53.084;6.960;2022-12-10T04:54:06;29.08;;;13.05;;
52386;SDS011;38317;53.084;6.960;2022-12-10T04:56:33;35.58;;;14.85;;
52386;SDS011;38317;53.084;6.960;2022-12-10T04:58:59;29.10;;;13.88;;
52386;SDS011;38317;53.084;6.960;2022-12-10T05:01:25;35.03;;;13.52;;
52386;SDS011;38317;53.084;6.960;2022-12-10T05:03:52;30.15;;;13.27;;
52386;SDS011;38317;53.084;6.960;2022-12-10T05:06:18;33.20;;;14.15;;
52386;SDS011;38317;53.084;6.960;2022-12-10T05:08:44;38.22;;;16.23;;
52386;SDS011;38317;53.084;6.960;2022-12-10T05:11:12;31.92;;;13.95;;
52386;SDS011;38317;53.084;6.960;2022-12-10T05:13:39;32.80;;;14.55;;
52386;SDS011;38317;53.084;6.960;2022-12-10T05:16:06;30.58;;;13.65;;
52386;SDS011;38317;53.084;6.960;2022-12-10T05:18:33;35.45;;;15.15;;
52386;SDS011;38317;53.084;6.960;2022-12-10T05:21:00;36.45;;;14.85;;
52386;SDS011;38317;53.084;6.960;2022-12-10T05:23:27;34.20;;;13.13;;
52386;SDS011;38317;53.084;6.960;2022-12-10T05:28:25;31.00;;;13.85;;
52386;SDS011;38317;53.084;6.960;2022-12-10T05:30:52;37.05;;;16.17;;
52386;SDS011;38317;53.084;6.960;2022-12-10T05:33:17;33.28;;;14.90;;
52386;SDS011;38317;53.084;6.960;2022-12-10T05:35:43;42.35;;;15.10;;
52386;SDS011;38317;53.084;6.960;2022-12-10T05:38:16;32.17;;;14.98;;
52386;SDS011;38317;53.084;6.960;2022-12-10T05:40:41;37.70;;;14.73;;
52386;SDS011;38317;53.084;6.960;2022-12-10T05:43:07;38.38;;;14.85;;
52386;SDS011;38317;53.084;6.960;2022-12-10T05:45:33;33.80;;;14.73;;
52386;SDS011;38317;53.084;6.960;2022-12-10T05:47:59;31.85;;;14.05;;
52386;SDS011;38317;53.084;6.960;2022-12-10T05:50:26;32.80;;;15.10;;
52386;SDS011;38317;53.084;6.960;2022-12-10T05:52:52;34.33;;;15.32;;
52386;SDS011;38317;53.084;6.960;2022-12-10T05:55:17;30.90;;;13.25;;
52386;SDS011;38317;53.084;6.960;2022-12-10T05:57:43;30.60;;;12.80;;
52386;SDS011;38317;53.084;6.960;2022-12-10T06:00:09;36.92;;;15.35;;
52386;SDS011;38317;53.084;6.960;2022-12-10T06:02:35;31.95;;;14.50;;
52386;SDS011;38317;53.084;6.960;2022-12-10T06:05:01;31.98;;;13.73;;
52386;SDS011;38317;53.084;6.960;2022-12-10T06:07:27;34.40;;;13.05;;
52386;SDS011;38317;53.084;6.960;2022-12-10T06:09:54;36.83;;;13.77;;
52386;SDS011;38317;53.084;6.960;2022-12-10T06:12:19;35.78;;;15.70;;
52386;SDS011;38317;53.084;6.960;2022-12-10T06:14:46;37.80;;;16.08;;
52386;SDS011;38317;53.084;6.960;2022-12-10T06:17:12;35.33;;;15.07;;
52386;SDS011;38317;53.084;6.960;2022-12-10T06:19:37;38.45;;;14.30;;
52386;SDS011;38317;53.084;6.960;2022-12-10T06:22:03;34.38;;;15.30;;
52386;SDS011;38317;53.084;6.960;2022-12-10T06:24:29;31.05;;;14.20;;
52386;SDS011;38317;53.084;6.960;2022-12-10T06:26:55;29.42;;;13.35;;
52386;SDS011;38317;53.084;6.960;2022-12-10T06:29:20;37.15;;;14.32;;
52386;SDS011;38317;53.084;6.960;2022-12-10T06:31:46;36.60;;;15.40;;
52386;SDS011;38317;53.084;6.960;2022-12-10T06:34:12;33.38;;;15.20;;
52386;SDS011;38317;53.084;6.960;2022-12-10T06:36:37;38.40;;;16.20;;
52386;SDS011;38317;53.084;6.960;2022-12-10T06:39:03;41.95;;;17.52;;
52386;SDS011;38317;53.084;6.960;2022-12-10T06:41:29;41.42;;;17.40;;
52386;SDS011;38317;53.084;6.960;2022-12-10T06:43:55;40.70;;;15.52;;
52386;SDS011;38317;53.084;6.960;2022-12-10T06:46:23;37.78;;;15.25;;
52386;SDS011;38317;53.084;6.960;2022-12-10T06:48:50;42.17;;;17.27;;
52386;SDS011;38317;53.084;6.960;2022-12-10T06:51:15;37.53;;;15.35;;
52386;SDS011;38317;53.084;6.960;2022-12-10T06:53:45;32.88;;;14.95;;
52386;SDS011;38317;53.084;6.960;2022-12-10T06:56:12;35.17;;;15.55;;
52386;SDS011;38317;53.084;6.960;2022-12-10T06:58:40;34.70;;;14.95;;
52386;SDS011;38317;53.084;6.960;2022-12-10T07:01:14;31.48;;;13.98;;
52386;SDS011;38317;53.084;6.960;2022-12-10T07:03:41;33.70;;;15.15;;
52386;SDS011;38317;53.084;6.960;2022-12-10T07:06:08;36.83;;;14.85;;
52386;SDS011;38317;53.084;6.960;2022-12-10T07:08:35;32.60;;;14.48;;
52386;SDS011;38317;53.084;6.960;2022-12-10T07:11:06;40.42;;;16.98;;
52386;SDS011;38317;53.084;6.960;2022-12-10T07:13:34;39.33;;;15.30;;
52386;SDS011;38317;53.084;6.960;2022-12-10T07:16:00;39.88;;;16.95;;
52386;SDS011;38317;53.084;6.960;2022-12-10T07:18:26;34.67;;;14.40;;
52386;SDS011;38317;53.084;6.960;2022-12-10T07:20:52;33.28;;;15.25;;
52386;SDS011;38317;53.084;6.960;2022-12-10T07:23:18;39.78;;;17.05;;
52386;SDS011;38317;53.084;6.960;2022-12-10T07:25:44;38.55;;;15.43;;
52386;SDS011;38317;53.084;6.960;2022-12-10T07:28:10;38.08;;;15.30;;
52386;SDS011;38317;53.084;6.960;2022-12-10T07:30:36;37.85;;;14.55;;
52386;SDS011;38317;53.084;6.960;2022-12-10T07:33:01;41.47;;;16.38;;
52386;SDS011;38317;53.084;6.960;2022-12-10T07:35:27;41.53;;;16.30;;
52386;SDS011;38317;53.084;6.960;2022-12-10T07:37:53;41.35;;;16.45;;
52386;SDS011;38317;53.084;6.960;2022-12-10T07:40:19;37.63;;;15.25;;
52386;SDS011;38317;53.084;6.960;2022-12-10T07:42:44;41.05;;;16.75;;
52386;SDS011;38317;53.084;6.960;2022-12-10T07:45:10;40.28;;;17.08;;
52386;SDS011;38317;53.084;6.960;2022-12-10T07:47:36;32.55;;;15.40;;
52386;SDS011;38317;53.084;6.960;2022-12-10T07:50:04;32.22;;;15.52;;
52386;SDS011;38317;53.084;6.960;2022-12-10T07:52:30;36.97;;;16.30;;
52386;SDS011;38317;53.084;6.960;2022-12-10T07:54:56;39.60;;;15.95;;
52386;SDS011;38317;53.084;6.960;2022-12-10T07:57:22;40.25;;;15.80;;
52386;SDS011;38317;53.084;6.960;2022-12-10T07:59:48;36.08;;;15.75;;
52386;SDS011;38317;53.084;6.960;2022-12-10T08:02:13;39.53;;;16.70;;
52386;SDS011;38317;53.084;6.960;2022-12-10T08:04:39;42.58;;;16.80;;
52386;SDS011;38317;53.084;6.960;2022-12-10T08:07:05;46.88;;;18.63;;
52386;SDS011;38317;53.084;6.960;2022-12-10T08:09:32;39.78;;;15.00;;
52386;SDS011;38317;53.084;6.960;2022-12-10T08:11:58;36.85;;;14.15;;
52386;SDS011;38317;53.084;6.960;2022-12-10T08:14:23;35.40;;;14.15;;
52386;SDS011;38317;53.084;6.960;2022-12-10T08:16:49;35.38;;;15.57;;
52386;SDS011;38317;53.084;6.960;2022-12-10T08:19:15;44.05;;;17.15;;
52386;SDS011;38317;53.084;6.960;2022-12-10T08:21:40;43.13;;;16.92;;
52386;SDS011;38317;53.084;6.960;2022-12-10T08:24:07;37.63;;;15.10;;
52386;SDS011;38317;53.084;6.960;2022-12-10T08:26:33;36.53;;;13.45;;
52386;SDS011;38317;53.084;6.960;2022-12-10T08:28:59;33.53;;;14.82;;
52386;SDS011;38317;53.084;6.960;2022-12-10T08:31:26;37.58;;;14.13;;
52386;SDS011;38317;53.084;6.960;2022-12-10T08:33:52;34.72;;;13.90;;
52386;SDS011;38317;53.084;6.960;2022-12-10T08:36:19;36.72;;;16.20;;
52386;SDS011;38317;53.084;6.960;2022-12-10T08:38:45;30.85;;;13.98;;
52386;SDS011;38317;53.084;6.960;2022-12-10T08:41:12;37.15;;;16.52;;
52386;SDS011;38317;53.084;6.960;2022-12-10T08:43:39;42.08;;;17.08;;
52386;SDS011;38317;53.084;6.960;2022-12-10T08:46:04;37.08;;;15.65;;
52386;SDS011;38317;53.084;6.960;2022-12-10T08:48:31;41.38;;;15.13;;
52386;SDS011;38317;53.084;6.960;2022-12-10T08:50:57;42.22;;;17.40;;
52386;SDS011;38317;53.084;6.960;2022-12-10T08:53:23;41.38;;;15.70;;
52386;SDS011;38317;53.084;6.960;2022-12-10T08:55:49;43.33;;;16.55;;
52386;SDS011;38317;53.084;6.960;2022-12-10T08:58:16;39.33;;;16.52;;
52386;SDS011;38317;53.084;6.960;2022-12-10T09:00:41;39.90;;;16.38;;
52386;SDS011;38317;53.084;6.960;2022-12-10T09:03:08;45.47;;;16.02;;
52386;SDS011;38317;53.084;6.960;2022-12-10T09:05:34;41.38;;;16.77;;
52386;SDS011;38317;53.084;6.960;2022-12-10T09:08:00;36.50;;;15.20;;
52386;SDS011;38317;53.084;6.960;2022-12-10T09:10:26;40.22;;;16.90;;
52386;SDS011;38317;53.084;6.960;2022-12-10T09:12:52;45.10;;;16.60;;
52386;SDS011;38317;53.084;6.960;2022-12-10T09:15:18;36.35;;;15.65;;
52386;SDS011;38317;53.084;6.960;2022-12-10T09:17:43;39.50;;;15.27;;
52386;SDS011;38317;53.084;6.960;2022-12-10T09:20:09;39.10;;;15.38;;
52386;SDS011;38317;53.084;6.960;2022-12-10T09:22:35;34.53;;;15.10;;
52386;SDS011;38317;53.084;6.960;2022-12-10T09:25:04;35.90;;;15.38;;
52386;SDS011;38317;53.084;6.960;2022-12-10T09:27:32;43.30;;;17.08;;
52386;SDS011;38317;53.084;6.960;2022-12-10T09:29:58;38.28;;;16.50;;
52386;SDS011;38317;53.084;6.960;2022-12-10T09:32:24;36.35;;;15.00;;
52386;SDS011;38317;53.084;6.960;2022-12-10T09:34:50;40.42;;;15.40;;
52386;SDS011;38317;53.084;6.960;2022-12-10T09:37:16;37.70;;;16.38;;
52386;SDS011;38317;53.084;6.960;2022-12-10T09:39:42;39.03;;;14.77;;
52386;SDS011;38317;53.084;6.960;2022-12-10T09:47:36;42.58;;;15.10;;
52386;SDS011;38317;53.084;6.960;2022-12-10T09:50:26;42.75;;;17.60;;
52386;SDS011;38317;53.084;6.960;2022-12-10T09:53:14;36.28;;;16.15;;
52386;SDS011;38317;53.084;6.960;2022-12-10T09:55:44;43.60;;;16.60;;
52386;SDS011;38317;53.084;6.960;2022-12-10T09:58:18;36.70;;;15.30;;
52386;SDS011;38317;53.084;6.960;2022-12-10T10:01:09;44.88;;;17.10;;
52386;SDS011;38317;53.084;6.960;2022-12-10T10:03:38;38.00;;;16.35;;
52386;SDS011;38317;53.084;6.960;2022-12-10T10:06:06;45.30;;;18.10;;
52386;SDS011;38317;53.084;6.960;2022-12-10T10:08:39;42.40;;;15.48;;
52386;SDS011;38317;53.084;6.960;2022-12-10T10:11:11;45.25;;;17.42;;
52386;SDS011;38317;53.084;6.960;2022-12-10T10:13:42;43.92;;;19.33;;
52386;SDS011;38317;53.084;6.960;2022-12-10T10:17:18;49.15;;;18.65;;
52386;SDS011;38317;53.084;6.960;2022-12-10T10:21:59;39.13;;;16.92;;
52386;SDS011;38317;53.084;6.960;2022-12-10T10:24:35;40.00;;;16.95;;
52386;SDS011;38317;53.084;6.960;2022-12-10T10:27:16;51.53;;;19.55;;
52386;SDS011;38317;53.084;6.960;2022-12-10T10:29:46;45.95;;;19.10;;
52386;SDS011;38317;53.084;6.960;2022-12-10T10:32:17;48.83;;;19.98;;
52386;SDS011;38317;53.084;6.960;2022-12-10T10:34:46;42.75;;;18.48;;
52386;SDS011;38317;53.084;6.960;2022-12-10T10:39:54;48.65;;;17.08;;
52386;SDS011;38317;53.084;6.960;2022-12-10T10:45:04;39.72;;;16.80;;
52386;SDS011;38317;53.084;6.960;2022-12-10T10:50:39;44.13;;;18.23;;
52386;SDS011;38317;53.084;6.960;2022-12-10T10:55:58;49.30;;;19.23;;
52386;SDS011;38317;53.084;6.960;2022-12-10T11:01:17;42.47;;;18.45;;
52386;SDS011;38317;53.084;6.960;2022-12-10T11:03:48;44.95;;;19.45;;
52386;SDS011;38317;53.084;6.960;2022-12-10T11:06:18;41.33;;;18.10;;
52386;SDS011;38317;53.084;6.960;2022-12-10T11:08:44;40.03;;;17.42;;
52386;SDS011;38317;53.084;6.960;2022-12-10T11:11:12;41.33;;;16.95;;
52386;SDS011;38317;53.084;6.960;2022-12-10T11:13:48;44.40;;;18.77;;
52386;SDS011;38317;53.084;6.960;2022-12-10T11:18:50;43.22;;;17.15;;
52386;SDS011;38317;53.084;6.960;2022-12-10T11:21:27;43.78;;;17.42;;
52386;SDS011;38317;53.084;6.960;2022-12-10T11:23:55;45.03;;;17.92;;
52386;SDS011;38317;53.084;6.960;2022-12-10T11:31:41;41.28;;;18.27;;
52386;SDS011;38317;53.084;6.960;2022-12-10T11:34:30;43.72;;;18.42;;
52386;SDS011;38317;53.084;6.960;2022-12-10T11:37:13;40.80;;;18.30;;
52386;SDS011;38317;53.084;6.960;2022-12-10T11:51:44;51.13;;;20.08;;
52386;SDS011;38317;53.084;6.960;2022-12-10T11:56:33;50.05;;;20.98;;
52386;SDS011;38317;53.084;6.960;2022-12-10T12:13:05;46.13;;;18.20;;
52386;SDS011;38317;53.084;6.960;2022-12-10T12:15:38;50.23;;;20.20;;
52386;SDS011;38317;53.084;6.960;2022-12-10T12:18:12;46.42;;;18.98;;
52386;SDS011;38317;53.084;6.960;2022-12-10T12:20:46;40.72;;;17.67;;
52386;SDS011;38317;53.084;6.960;2022-12-10T12:23:24;52.60;;;20.25;;
52386;SDS011;38317;53.084;6.960;2022-12-10T12:26:38;42.70;;;18.45;;
52386;SDS011;38317;53.084;6.960;2022-12-10T12:32:11;50.58;;;19.20;;
52386;SDS011;38317;53.084;6.960;2022-12-10T12:34:47;50.13;;;20.90;;
52386;SDS011;38317;53.084;6.960;2022-12-10T12:37:17;37.53;;;16.45;;
52386;SDS011;38317;53.084;6.960;2022-12-10T12:45:28;53.83;;;21.10;;
52386;SDS011;38317;53.084;6.960;2022-12-10T12:50:45;43.35;;;18.02;;
52386;SDS011;38317;53.084;6.960;2022-12-10T12:53:14;47.95;;;18.50;;
52386;SDS011;38317;53.084;6.960;2022-12-10T12:55:51;50.30;;;18.15;;
52386;SDS011;38317;53.084;6.960;2022-12-10T12:58:34;51.58;;;19.77;;
52386;SDS011;38317;53.084;6.960;2022-12-10T13:01:22;48.97;;;19.73;;
52386;SDS011;38317;53.084;6.960;2022-12-10T13:17:37;44.78;;;18.65;;
52386;SDS011;38317;53.084;6.960;2022-12-10T13:22:55;42.17;;;16.88;;
52386;SDS011;38317;53.084;6.960;2022-12-10T13:25:40;39.92;;;18.08;;
52386;SDS011;38317;53.084;6.960;2022-12-10T13:28:49;46.80;;;18.80;;
52386;SDS011;38317;53.084;6.960;2022-12-10T13:31:08;42.22;;;17.63;;
52386;SDS011;38317;53.084;6.960;2022-12-10T13:36:37;46.72;;;18.42;;
52386;SDS011;38317;53.084;6.960;2022-12-10T13:44:56;38.55;;;16.52;;
52386;SDS011;38317;53.084;6.960;2022-12-10T13:50:00;44.90;;;17.20;;
52386;SDS011;38317;53.084;6.960;2022-12-10T13:53:03;40.22;;;15.98;;
52386;SDS011;38317;53.084;6.960;2022-12-10T13:55:53;42.78;;;17.48;;
52386;SDS011;38317;53.084;6.960;2022-12-10T14:06:33;36.20;;;14.30;;
52386;SDS011;38317;53.084;6.960;2022-12-10T14:11:39;43.30;;;15.18;;
52386;SDS011;38317;53.084;6.960;2022-12-10T14:14:13;34.95;;;14.18;;
52386;SDS011;38317;53.084;6.960;2022-12-10T14:16:46;39.83;;;14.27;;
52386;SDS011;38317;53.084;6.960;2022-12-10T14:19:13;36.95;;;13.88;;
52386;SDS011;38317;53.084;6.960;2022-12-10T14:21:41;42.80;;;15.75;;
52386;SDS011;38317;53.084;6.960;2022-12-10T14:24:29;38.95;;;15.48;;
52386;SDS011;38317;53.084;6.960;2022-12-10T14:27:05;36.13;;;14.90;;
52386;SDS011;38317;53.084;6.960;2022-12-10T14:29:43;38.75;;;14.50;;
52386;SDS011;38317;53.084;6.960;2022-12-10T14:32:14;38.88;;;16.05;;
52386;SDS011;38317;53.084;6.960;2022-12-10T14:34:43;36.70;;;13.50;;
52386;SDS011;38317;53.084;6.960;2022-12-10T14:37:15;40.72;;;16.00;;
52386;SDS011;38317;53.084;6.960;2022-12-10T14:39:41;40.97;;;15.45;;
52386;SDS011;38317;53.084;6.960;2022-12-10T14:42:09;39.28;;;15.43;;
52386;SDS011;38317;53.084;6.960;2022-12-10T14:44:39;37.38;;;15.18;;
52386;SDS011;38317;53.084;6.960;2022-12-10T14:47:16;41.53;;;16.00;;
52386;SDS011;38317;53.084;6.960;2022-12-10T14:49:45;35.05;;;13.93;;
52386;SDS011;38317;53.084;6.960;2022-12-10T14:52:13;42.25;;;16.00;;
52386;SDS011;38317;53.084;6.960;2022-12-10T14:54:41;38.85;;;14.45;;
52386;SDS011;38317;53.084;6.960;2022-12-10T14:57:08;41.92;;;15.48;;
52386;SDS011;38317;53.084;6.960;2022-12-10T14:59:50;37.40;;;14.95;;
52386;SDS011;38317;53.084;6.960;2022-12-10T15:02:39;39.65;;;15.43;;
52386;SDS011;38317;53.084;6.960;2022-12-10T15:05:11;41.40;;;15.15;;
52386;SDS011;38317;53.084;6.960;2022-12-10T15:07:53;38.10;;;14.68;;
52386;SDS011;38317;53.084;6.960;2022-12-10T15:10:28;37.03;;;15.65;;
52386;SDS011;38317;53.084;6.960;2022-12-10T15:13:04;37.05;;;14.48;;
52386;SDS011;38317;53.084;6.960;2022-12-10T15:20:37;36.00;;;14.80;;
52386;SDS011;38317;53.084;6.960;2022-12-10T15:25:47;38.10;;;13.85;;
52386;SDS011;38317;53.084;6.960;2022-12-10T15:28:52;37.92;;;12.88;;
52386;SDS011;38317;53.084;6.960;2022-12-10T15:33:49;41.40;;;15.15;;
52386;SDS011;38317;53.084;6.960;2022-12-10T15:36:25;37.25;;;14.20;;
52386;SDS011;38317;53.084;6.960;2022-12-10T15:38:55;39.03;;;14.82;;
52386;SDS011;38317;53.084;6.960;2022-12-10T15:43:53;33.15;;;13.57;;
52386;SDS011;38317;53.084;6.960;2022-12-10T15:46:26;36.92;;;14.40;;
52386;SDS011;38317;53.084;6.960;2022-12-10T15:48:51;38.10;;;14.48;;
52386;SDS011;38317;53.084;6.960;2022-12-10T15:51:17;39.00;;;14.55;;
52386;SDS011;38317;53.084;6.960;2022-12-10T15:53:44;37.97;;;14.48;;
52386;SDS011;38317;53.084;6.960;2022-12-10T15:56:09;39.47;;;14.20;;
52386;SDS011;38317;53.084;6.960;2022-12-10T15:58:35;39.45;;;14.73;;
52386;SDS011;38317;53.084;6.960;2022-12-10T16:01:01;33.55;;;12.77;;
52386;SDS011;38317;53.084;6.960;2022-12-10T16:03:27;36.63;;;14.98;;
52386;SDS011;38317;53.084;6.960;2022-12-10T16:05:54;36.05;;;13.65;;
52386;SDS011;38317;53.084;6.960;2022-12-10T16:08:21;37.88;;;15.27;;
52386;SDS011;38317;53.084;6.960;2022-12-10T16:10:52;37.30;;;14.60;;
52386;SDS011;38317;53.084;6.960;2022-12-10T16:13:24;40.70;;;14.80;;
52386;SDS011;38317;53.084;6.960;2022-12-10T16:16:09;31.55;;;13.57;;
52386;SDS011;38317;53.084;6.960;2022-12-10T16:18:37;30.20;;;12.73;;
52386;SDS011;38317;53.084;6.960;2022-12-10T16:21:03;41.95;;;15.48;;
52386;SDS011;38317;53.084;6.960;2022-12-10T16:23:30;38.85;;;15.07;;
52386;SDS011;38317;53.084;6.960;2022-12-10T16:25:56;39.47;;;14.32;;
52386;SDS011;38317;53.084;6.960;2022-12-10T16:28:23;42.97;;;15.85;;
52386;SDS011;38317;53.084;6.960;2022-12-10T16:30:50;41.33;;;15.60;;
52386;SDS011;38317;53.084;6.960;2022-12-10T16:33:18;36.17;;;14.55;;
52386;SDS011;38317;53.084;6.960;2022-12-10T16:35:48;40.03;;;14.45;;
52386;SDS011;38317;53.084;6.960;2022-12-10T16:38:15;42.92;;;15.60;;
52386;SDS011;38317;53.084;6.960;2022-12-10T16:40:41;48.45;;;16.35;;
52386;SDS011;38317;53.084;6.960;2022-12-10T16:43:27;41.28;;;14.48;;
52386;SDS011;38317;53.084;6.960;2022-12-10T16:45:55;42.28;;;14.27;;
52386;SDS011;38317;53.084;6.960;2022-12-10T16:48:20;38.00;;;14.75;;
52386;SDS011;38317;53.084;6.960;2022-12-10T16:50:47;37.47;;;12.98;;
52386;SDS011;38317;53.084;6.960;2022-12-10T16:55:54;43.75;;;15.95;;
52386;SDS011;38317;53.084;6.960;2022-12-10T16:58:21;40.60;;;15.27;;
52386;SDS011;38317;53.084;6.960;2022-12-10T17:00:48;42.50;;;14.70;;
52386;SDS011;38317;53.084;6.960;2022-12-10T17:03:17;38.42;;;14.20;;